CFG2A EDDH-EDDF
Flight info
| Callsign | CFG2A |
|---|---|
| Flight time | N/A |
| Altitude | 30000 |
| Route | AMLUH2G/33 AMLUH M852 DENIX DCT RIMET/N0411F310 T157 KOKEB/N0356F230 T157 KERAX KERAX5A |
| Aircraft | A20N/M-SDE2E3FGHIRWXY/LB1 |
Departure
| Time | 2026-05-06 15:12 |
|---|---|
| Airport | Hamburg Helmut Schmidt Airport (EDDH) |
Arrival
| Time | N/A |
|---|---|
| Airport | Frankfurt Main Airport (EDDF) |
| Time | Latitude | Longitude | Altitude | Speed | Heading |
|---|---|---|---|---|---|
| 2026-05-06 14:27 | 53.63115 | 10.00059 | 49 ft | 0 kts | 141° |
| 2026-05-06 15:03 | 53.63124 | 10.00046 | 47 ft | 3 kts | 141° |
| 2026-05-06 15:03 | 53.63140 | 10.00024 | 45 ft | 3 kts | 141° |
| 2026-05-06 15:03 | 53.63155 | 10.00006 | 47 ft | 3 kts | 176° |
| 2026-05-06 15:03 | 53.63170 | 10.00012 | 45 ft | 2 kts | 229° |
| 2026-05-06 15:04 | 53.63176 | 10.00026 | 50 ft | 1 kts | 231° |
| 2026-05-06 15:04 | 53.63178 | 10.00029 | 50 ft | 1 kts | 231° |
| 2026-05-06 15:07 | 53.63177 | 10.00027 | 50 ft | 1 kts | 231° |
| 2026-05-06 15:07 | 53.63165 | 10.00002 | 46 ft | 4 kts | 231° |
| 2026-05-06 15:08 | 53.63138 | 9.99944 | 50 ft | 8 kts | 231° |
| 2026-05-06 15:08 | 53.63082 | 9.99888 | 50 ft | 11 kts | 180° |
| 2026-05-06 15:08 | 53.63011 | 9.99947 | 50 ft | 6 kts | 152° |
| 2026-05-06 15:08 | 53.62960 | 9.99990 | 50 ft | 10 kts | 159° |
| 2026-05-06 15:09 | 53.62902 | 9.99935 | 50 ft | 12 kts | 244° |
| 2026-05-06 15:09 | 53.62894 | 9.99905 | 50 ft | 0 kts | 243° |
| 2026-05-06 15:10 | 53.62890 | 9.99894 | 47 ft | 3 kts | 243° |
| 2026-05-06 15:10 | 53.62876 | 9.99846 | 47 ft | 7 kts | 243° |
| 2026-05-06 15:10 | 53.62871 | 9.99755 | 49 ft | 9 kts | 300° |
| 2026-05-06 15:10 | 53.62908 | 9.99710 | 49 ft | 0 kts | 331° |
| 2026-05-06 15:11 | 53.63026 | 9.99608 | 45 ft | 58 kts | 334° |
| 2026-05-06 15:11 | 53.63633 | 9.99091 | 47 ft | 133 kts | 333° |
| 2026-05-06 15:11 | 53.64597 | 9.98262 | 406 ft | 162 kts | 337° |
| 2026-05-06 15:12 | 53.65622 | 9.97306 | 1271 ft | 176 kts | 331° |
| 2026-05-06 15:12 | 53.66666 | 9.96055 | 2119 ft | 190 kts | 332° |
| 2026-05-06 15:12 | 53.67828 | 9.95001 | 3108 ft | 188 kts | 347° |
| 2026-05-06 15:12 | 53.69097 | 9.94589 | 4054 ft | 194 kts | 0° |
| 2026-05-06 15:13 | 53.70520 | 9.94399 | 4719 ft | 211 kts | 0° |
| 2026-05-06 15:13 | 53.71962 | 9.94296 | 5394 ft | 198 kts | 3° |
| 2026-05-06 15:13 | 53.73264 | 9.94869 | 5987 ft | 198 kts | 36° |
| 2026-05-06 15:13 | 53.74290 | 9.96490 | 6600 ft | 209 kts | 52° |
| 2026-05-06 15:14 | 53.74934 | 9.98730 | 7188 ft | 220 kts | 79° |
| 2026-05-06 15:14 | 53.74905 | 10.01338 | 7783 ft | 235 kts | 102° |
| 2026-05-06 15:14 | 53.74323 | 10.03961 | 8422 ft | 231 kts | 114° |
| 2026-05-06 15:14 | 53.73543 | 10.06199 | 9048 ft | 219 kts | 121° |
| 2026-05-06 15:15 | 53.72680 | 10.08498 | 9315 ft | 244 kts | 120° |
| 2026-05-06 15:15 | 53.71769 | 10.11028 | 9649 ft | 270 kts | 120° |
| 2026-05-06 15:15 | 53.70788 | 10.13871 | 9994 ft | 286 kts | 118° |
| 2026-05-06 15:15 | 53.69770 | 10.16861 | 10540 ft | 304 kts | 121° |
| 2026-05-06 15:16 | 53.68339 | 10.19648 | 10932 ft | 325 kts | 140° |
| 2026-05-06 15:16 | 53.66339 | 10.21523 | 11702 ft | 334 kts | 160° |
| 2026-05-06 15:16 | 53.64102 | 10.22574 | 12699 ft | 333 kts | 163° |
| 2026-05-06 15:16 | 53.61860 | 10.23593 | 13590 ft | 338 kts | 164° |
| 2026-05-06 15:17 | 53.59562 | 10.24645 | 14245 ft | 343 kts | 164° |
| 2026-05-06 15:17 | 53.57249 | 10.25704 | 15055 ft | 344 kts | 165° |
| 2026-05-06 15:17 | 53.54926 | 10.26770 | 15813 ft | 349 kts | 165° |
| 2026-05-06 15:17 | 53.52561 | 10.27857 | 16421 ft | 357 kts | 166° |
| 2026-05-06 15:18 | 53.50156 | 10.28958 | 17172 ft | 360 kts | 166° |
| 2026-05-06 15:18 | 53.47728 | 10.30065 | 17888 ft | 364 kts | 166° |
| 2026-05-06 15:18 | 53.45269 | 10.31186 | 18537 ft | 368 kts | 166° |
| 2026-05-06 15:18 | 53.42783 | 10.32317 | 19156 ft | 371 kts | 166° |
| 2026-05-06 15:19 | 53.40280 | 10.33450 | 19784 ft | 375 kts | 166° |
| 2026-05-06 15:19 | 53.37742 | 10.34593 | 20406 ft | 378 kts | 166° |
| 2026-05-06 15:19 | 53.35185 | 10.35740 | 21002 ft | 383 kts | 166° |
| 2026-05-06 15:19 | 53.32601 | 10.36898 | 21604 ft | 387 kts | 166° |
| 2026-05-06 15:20 | 53.29984 | 10.38070 | 22230 ft | 390 kts | 166° |
| 2026-05-06 15:20 | 53.27358 | 10.39245 | 22924 ft | 390 kts | 166° |
| 2026-05-06 15:20 | 53.24724 | 10.40421 | 23496 ft | 394 kts | 165° |
| 2026-05-06 15:20 | 53.22051 | 10.41613 | 23932 ft | 399 kts | 165° |
| 2026-05-06 15:21 | 53.19355 | 10.42814 | 24453 ft | 402 kts | 165° |
| 2026-05-06 15:21 | 53.16662 | 10.44012 | 25078 ft | 402 kts | 166° |
| 2026-05-06 15:21 | 53.13938 | 10.44932 | 25470 ft | 407 kts | 172° |
| 2026-05-06 15:21 | 53.11104 | 10.45304 | 25913 ft | 410 kts | 179° |
| 2026-05-06 15:22 | 53.08246 | 10.45110 | 26445 ft | 411 kts | 185° |
| 2026-05-06 15:22 | 53.05390 | 10.44684 | 26864 ft | 414 kts | 184° |
| 2026-05-06 15:22 | 53.02508 | 10.44269 | 27324 ft | 416 kts | 184° |
| 2026-05-06 15:22 | 52.99600 | 10.43862 | 27684 ft | 420 kts | 184° |
| 2026-05-06 15:23 | 52.96679 | 10.43461 | 28066 ft | 424 kts | 184° |
| 2026-05-06 15:23 | 52.93731 | 10.43058 | 28496 ft | 425 kts | 184° |
| 2026-05-06 15:23 | 52.90776 | 10.42655 | 28869 ft | 428 kts | 184° |
| 2026-05-06 15:23 | 52.87800 | 10.42249 | 29257 ft | 430 kts | 184° |
| 2026-05-06 15:24 | 52.84809 | 10.41843 | 29594 ft | 433 kts | 184° |
| 2026-05-06 15:24 | 52.81797 | 10.41434 | 29753 ft | 435 kts | 184° |
| 2026-05-06 15:24 | 52.78776 | 10.41025 | 29829 ft | 435 kts | 184° |
| 2026-05-06 15:25 | 52.72775 | 10.40218 | 29818 ft | 431 kts | 185° |
| 2026-05-06 15:25 | 52.66751 | 10.39404 | 29814 ft | 436 kts | 185° |
| 2026-05-06 15:26 | 52.60722 | 10.38591 | 29817 ft | 433 kts | 185° |
| 2026-05-06 15:26 | 52.54755 | 10.37790 | 29806 ft | 435 kts | 185° |
| 2026-05-06 15:27 | 52.48711 | 10.36992 | 29805 ft | 434 kts | 186° |
| 2026-05-06 15:27 | 52.42696 | 10.36188 | 29806 ft | 434 kts | 186° |
| 2026-05-06 15:28 | 52.36676 | 10.35385 | 29803 ft | 434 kts | 186° |
| 2026-05-06 15:28 | 52.30651 | 10.34584 | 29784 ft | 434 kts | 186° |
| 2026-05-06 15:29 | 52.24652 | 10.33790 | 29801 ft | 433 kts | 186° |
| 2026-05-06 15:29 | 52.19657 | 10.33129 | 29799 ft | 433 kts | 186° |
| 2026-05-06 15:30 | 52.13655 | 10.32338 | 29795 ft | 433 kts | 186° |
| 2026-05-06 15:30 | 52.07653 | 10.31548 | 29796 ft | 432 kts | 186° |
| 2026-05-06 15:31 | 52.01667 | 10.30763 | 29791 ft | 431 kts | 186° |
| 2026-05-06 15:31 | 51.95676 | 10.29979 | 29788 ft | 431 kts | 186° |
| 2026-05-06 15:32 | 51.89736 | 10.29213 | 29785 ft | 416 kts | 187° |
| 2026-05-06 15:32 | 51.86893 | 10.28847 | 29787 ft | 406 kts | 187° |
| 2026-05-06 15:32 | 51.81170 | 10.28093 | 29783 ft | 413 kts | 187° |
| 2026-05-06 15:33 | 51.75486 | 10.27352 | 29783 ft | 413 kts | 187° |
| 2026-05-06 15:33 | 51.69758 | 10.26611 | 29781 ft | 412 kts | 187° |
| 2026-05-06 15:34 | 51.64023 | 10.25873 | 29778 ft | 413 kts | 187° |
| 2026-05-06 15:34 | 51.58306 | 10.25136 | 29769 ft | 413 kts | 187° |
| 2026-05-06 15:35 | 51.52562 | 10.24398 | 29774 ft | 414 kts | 187° |
| 2026-05-06 15:35 | 51.46822 | 10.23665 | 29768 ft | 414 kts | 187° |
| 2026-05-06 15:36 | 51.41087 | 10.22932 | 29765 ft | 414 kts | 187° |
| 2026-05-06 15:36 | 51.35348 | 10.22200 | 29750 ft | 415 kts | 187° |
| 2026-05-06 15:37 | 51.29514 | 10.21854 | 29766 ft | 420 kts | 183° |
| 2026-05-06 15:37 | 51.23726 | 10.21747 | 29762 ft | 419 kts | 183° |
| 2026-05-06 15:38 | 51.17879 | 10.21629 | 29761 ft | 420 kts | 183° |
| 2026-05-06 15:38 | 51.12042 | 10.21511 | 29739 ft | 420 kts | 182° |
| 2026-05-06 15:39 | 51.06139 | 10.21403 | 29754 ft | 425 kts | 182° |
| 2026-05-06 15:39 | 51.00229 | 10.21299 | 29756 ft | 424 kts | 182° |
| 2026-05-06 15:40 | 50.94332 | 10.21194 | 29727 ft | 423 kts | 182° |
| 2026-05-06 15:40 | 50.91401 | 10.21143 | 29372 ft | 420 kts | 182° |
| 2026-05-06 15:40 | 50.88486 | 10.21091 | 28787 ft | 417 kts | 182° |
| 2026-05-06 15:41 | 50.85608 | 10.20852 | 28161 ft | 411 kts | 191° |
| 2026-05-06 15:41 | 50.82870 | 10.19692 | 27449 ft | 407 kts | 203° |
| 2026-05-06 15:41 | 50.80385 | 10.17594 | 26767 ft | 403 kts | 215° |
| 2026-05-06 15:41 | 50.78280 | 10.14714 | 26128 ft | 399 kts | 227° |
| 2026-05-06 15:42 | 50.76633 | 10.11204 | 25477 ft | 398 kts | 239° |
| 2026-05-06 15:42 | 50.75381 | 10.07321 | 24871 ft | 395 kts | 243° |
| 2026-05-06 15:42 | 50.74175 | 10.03506 | 24291 ft | 392 kts | 242° |
| 2026-05-06 15:42 | 50.72951 | 9.99662 | 23707 ft | 389 kts | 243° |
| 2026-05-06 15:43 | 50.71735 | 9.95860 | 23109 ft | 387 kts | 243° |
| 2026-05-06 15:43 | 50.70524 | 9.92084 | 22460 ft | 383 kts | 242° |